首页
METAR-TAF:

METAR-TAF

机场 :

萨格勒布机场

萨格勒布, 克罗地亚

纬度: 45-44N, 经度: 016-04E, 海拔: 106米

当前天气观测

该预报发布于17分钟前的08:30 UTC
风速4节,风向,在南转南东之间变化
温度 16°C
湿度 72%
气压 1010 hPa
能见度10公里或以上
少量云层高于1300英尺

METAR: LDZA 230830Z 08004KT 350V160 9999 FEW013 16/11 Q1010 NOSIG

时间: 10:47 (08:47 UTC)

预报

该预报发布于3小时和22分钟前的05:25 UTC
预报有效从23日的 06点(UTC)到 24日的 06点(UTC)
风速7节,风向东转东南
能见度10公里或以上
多云层高于4500英尺
几率 40% :
短暂存在
从 23日的 11点(UTC)到 24日的 02点(UTC)
少量云层高于2000英尺, 塔状积云.
多云层高于3500英尺
阵雨
几率 30% :
短暂存在
从 23日的 13点(UTC)到 23日的 20点(UTC)
能見度: 4000
少量云层高于2500英尺, 积雨云.
多云层高于3000英尺
雷暴, 雨
成为
从 23日的 21点(UTC)到 23日的 23点(UTC)
能見度: 4000
轻雾
几率 40%
从 24日的 02点(UTC)到 24日的 06点(UTC)
能見度: 0500
层高于100英尺

TAF: LDZA 230525Z 2306/2406 11007KT 9999 BKN045 TX18/2312Z TN10/2404Z PROB40 TEMPO 2311/2402 SHRA FEW020TCU BKN035 PROB30 TEMPO 2313/2320 4000 TSRA FEW025CB BKN030 BECMG 2321/2323 4000 BR PROB40 2402/2406 0500 FG VV001

超过4000个机场的气象观测和天气预报(METAR&TAF报告)。

可查询的气象台以黄色和红色小点在地图上表示。

将鼠标移到小点上方,可查看气象台名称。

然后点击查看天气观测和预报。

如需切换地图:点击带黑十字的绿色按钮放大地图;点击带横线的绿色按钮缩小地图;或者点击绿色箭头查看邻近地区的地图。


METAR-TAF: